sensor_id;sensor_type;location;lat;lon;timestamp;pressure;altitude;pressure_sealevel;temperature;humidity
84821;BME280;75463;50.988;11.332;2024-03-23T00:55:41;98039.50;;;6.25;92.23
84821;BME280;75463;50.988;11.332;2024-03-23T00:58:06;98027.84;;;6.34;92.05
84821;BME280;75463;50.988;11.332;2024-03-23T01:00:31;98025.81;;;6.45;91.95
84821;BME280;75463;50.988;11.332;2024-03-23T01:02:57;98023.06;;;6.49;91.56
84821;BME280;75463;50.988;11.332;2024-03-23T01:05:22;98029.59;;;6.44;91.09
84821;BME280;75463;50.988;11.332;2024-03-23T01:07:47;98028.25;;;6.28;91.43
84821;BME280;75463;50.988;11.332;2024-03-23T01:10:13;98022.78;;;6.19;92.09
84821;BME280;75463;50.988;11.332;2024-03-23T01:12:38;98022.75;;;6.38;91.73
84821;BME280;75463;50.988;11.332;2024-03-23T01:15:04;98014.38;;;6.57;91.74
84821;BME280;75463;50.988;11.332;2024-03-23T01:17:29;98012.41;;;6.63;91.19
84821;BME280;75463;50.988;11.332;2024-03-23T01:19:54;98019.53;;;6.67;91.16
84821;BME280;75463;50.988;11.332;2024-03-23T01:22:20;98010.03;;;6.75;91.37
84821;BME280;75463;50.988;11.332;2024-03-23T01:24:45;98010.75;;;6.80;90.30
84821;BME280;75463;50.988;11.332;2024-03-23T01:27:10;98000.66;;;6.77;89.21
84821;BME280;75463;50.988;11.332;2024-03-23T01:29:36;98007.75;;;6.68;89.75
84821;BME280;75463;50.988;11.332;2024-03-23T01:32:01;97994.22;;;6.78;89.67
84821;BME280;75463;50.988;11.332;2024-03-23T01:34:26;97982.34;;;6.71;89.50
84821;BME280;75463;50.988;11.332;2024-03-23T01:36:53;97986.63;;;6.85;89.02
84821;BME280;75463;50.988;11.332;2024-03-23T01:39:18;97986.22;;;6.78;89.30
84821;BME280;75463;50.988;11.332;2024-03-23T01:41:43;97978.19;;;6.78;88.93
84821;BME280;75463;50.988;11.332;2024-03-23T01:44:09;97976.41;;;6.74;90.01
84821;BME280;75463;50.988;11.332;2024-03-23T01:46:35;97975.53;;;6.78;89.18
84821;BME280;75463;50.988;11.332;2024-03-23T01:49:01;97965.53;;;6.84;88.58
84821;BME280;75463;50.988;11.332;2024-03-23T01:51:27;97965.13;;;6.90;88.62
84821;BME280;75463;50.988;11.332;2024-03-23T01:53:54;97947.03;;;6.87;88.63
84821;BME280;75463;50.988;11.332;2024-03-23T01:56:20;97945.16;;;6.74;89.23
84821;BME280;75463;50.988;11.332;2024-03-23T01:58:45;97940.00;;;6.64;88.94
84821;BME280;75463;50.988;11.332;2024-03-23T02:01:11;97947.00;;;6.47;89.33
84821;BME280;75463;50.988;11.332;2024-03-23T02:03:36;97945.59;;;6.36;89.22
84821;BME280;75463;50.988;11.332;2024-03-23T02:06:02;97941.97;;;6.32;90.32
84821;BME280;75463;50.988;11.332;2024-03-23T02:08:27;97925.53;;;6.39;90.54
84821;BME280;75463;50.988;11.332;2024-03-23T02:10:53;97924.47;;;6.40;90.77
84821;BME280;75463;50.988;11.332;2024-03-23T02:13:19;97930.88;;;6.25;90.06
84821;BME280;75463;50.988;11.332;2024-03-23T02:15:44;97929.66;;;6.18;90.45
84821;BME280;75463;50.988;11.332;2024-03-23T02:18:10;97921.63;;;6.04;89.82
84821;BME280;75463;50.988;11.332;2024-03-23T02:20:36;97914.59;;;5.95;91.22
84821;BME280;75463;50.988;11.332;2024-03-23T02:23:03;97913.53;;;5.96;91.44
84821;BME280;75463;50.988;11.332;2024-03-23T02:25:28;97901.16;;;6.00;90.56
84821;BME280;75463;50.988;11.332;2024-03-23T02:27:53;97912.38;;;5.84;91.24
84821;BME280;75463;50.988;11.332;2024-03-23T02:30:20;97886.91;;;5.91;91.29
84821;BME280;75463;50.988;11.332;2024-03-23T02:32:45;97885.16;;;6.00;90.93
84821;BME280;75463;50.988;11.332;2024-03-23T02:35:11;97889.72;;;5.99;90.58
84821;BME280;75463;50.988;11.332;2024-03-23T02:37:36;97892.75;;;5.93;91.11
84821;BME280;75463;50.988;11.332;2024-03-23T02:40:02;97875.94;;;5.93;90.83
84821;BME280;75463;50.988;11.332;2024-03-23T02:42:27;97883.28;;;6.00;91.27
84821;BME280;75463;50.988;11.332;2024-03-23T02:44:53;97880.22;;;6.07;91.42
84821;BME280;75463;50.988;11.332;2024-03-23T02:47:19;97892.09;;;6.14;90.30
84821;BME280;75463;50.988;11.332;2024-03-23T02:49:44;97884.78;;;6.20;89.79
84821;BME280;75463;50.988;11.332;2024-03-23T02:52:09;97878.38;;;6.34;90.33
84821;BME280;75463;50.988;11.332;2024-03-23T02:54:35;97869.56;;;6.60;91.29
84821;BME280;75463;50.988;11.332;2024-03-23T02:57:00;97868.59;;;6.70;90.93
84821;BME280;75463;50.988;11.332;2024-03-23T02:59:25;97880.63;;;6.81;90.14
84821;BME280;75463;50.988;11.332;2024-03-23T03:01:51;97883.81;;;6.83;89.83
84821;BME280;75463;50.988;11.332;2024-03-23T03:04:16;97884.00;;;6.73;90.50
84821;BME280;75463;50.988;11.332;2024-03-23T03:06:41;97875.78;;;6.83;89.99
84821;BME280;75463;50.988;11.332;2024-03-23T03:09:06;97862.63;;;6.86;90.02
84821;BME280;75463;50.988;11.332;2024-03-23T03:11:32;97875.28;;;6.94;90.40
84821;BME280;75463;50.988;11.332;2024-03-23T03:13:57;97864.38;;;7.04;90.16
84821;BME280;75463;50.988;11.332;2024-03-23T03:16:25;97856.84;;;7.06;90.08
84821;BME280;75463;50.988;11.332;2024-03-23T03:18:50;97843.56;;;7.14;90.11
84821;BME280;75463;50.988;11.332;2024-03-23T03:21:17;97832.19;;;7.31;88.78
84821;BME280;75463;50.988;11.332;2024-03-23T03:23:44;97807.28;;;7.22;89.37
84821;BME280;75463;50.988;11.332;2024-03-23T03:26:10;97806.50;;;7.21;89.37
84821;BME280;75463;50.988;11.332;2024-03-23T03:28:35;97812.22;;;7.28;88.81
84821;BME280;75463;50.988;11.332;2024-03-23T03:31:00;97800.72;;;7.28;89.33
84821;BME280;75463;50.988;11.332;2024-03-23T03:33:27;97786.69;;;7.22;90.03
84821;BME280;75463;50.988;11.332;2024-03-23T03:35:52;97794.41;;;7.24;89.21
84821;BME280;75463;50.988;11.332;2024-03-23T03:38:18;97793.69;;;7.32;88.82
84821;BME280;75463;50.988;11.332;2024-03-23T03:40:44;97799.16;;;7.27;89.34
84821;BME280;75463;50.988;11.332;2024-03-23T03:43:09;97785.53;;;7.15;89.51
84821;BME280;75463;50.988;11.332;2024-03-23T03:45:34;97767.03;;;7.18;90.03
84821;BME280;75463;50.988;11.332;2024-03-23T03:48:00;97767.19;;;7.22;89.67
84821;BME280;75463;50.988;11.332;2024-03-23T03:50:25;97761.13;;;7.30;89.24
84821;BME280;75463;50.988;11.332;2024-03-23T03:52:50;97776.06;;;7.31;88.63
84821;BME280;75463;50.988;11.332;2024-03-23T03:55:16;97766.09;;;7.23;89.10
84821;BME280;75463;50.988;11.332;2024-03-23T03:57:41;97757.22;;;7.36;88.47
84821;BME280;75463;50.988;11.332;2024-03-23T04:00:07;97756.09;;;7.37;89.05
84821;BME280;75463;50.988;11.332;2024-03-23T04:02:39;97758.44;;;7.30;87.94
84821;BME280;75463;50.988;11.332;2024-03-23T04:05:04;97754.25;;;7.37;89.07
84821;BME280;75463;50.988;11.332;2024-03-23T04:07:30;97761.81;;;7.44;88.90
84821;BME280;75463;50.988;11.332;2024-03-23T04:09:55;97746.91;;;7.51;87.50
84821;BME280;75463;50.988;11.332;2024-03-23T04:12:20;97738.13;;;7.50;88.76
84821;BME280;75463;50.988;11.332;2024-03-23T04:14:46;97740.78;;;7.50;88.58
84821;BME280;75463;50.988;11.332;2024-03-23T04:17:11;97730.69;;;7.47;89.05
84821;BME280;75463;50.988;11.332;2024-03-23T04:19:37;97729.97;;;7.55;87.75
84821;BME280;75463;50.988;11.332;2024-03-23T04:22:02;97711.69;;;7.49;88.44
84821;BME280;75463;50.988;11.332;2024-03-23T04:24:28;97695.38;;;7.59;88.49
84821;BME280;75463;50.988;11.332;2024-03-23T04:26:54;97687.34;;;7.59;88.18
84821;BME280;75463;50.988;11.332;2024-03-23T04:29:19;97695.78;;;7.52;89.00
84821;BME280;75463;50.988;11.332;2024-03-23T04:31:45;97698.75;;;7.43;89.59
84821;BME280;75463;50.988;11.332;2024-03-23T04:34:10;97703.19;;;7.47;89.73
84821;BME280;75463;50.988;11.332;2024-03-23T04:36:36;97729.88;;;7.39;90.12
84821;BME280;75463;50.988;11.332;2024-03-23T04:39:01;97721.25;;;7.42;90.15
84821;BME280;75463;50.988;11.332;2024-03-23T04:41:27;97706.16;;;7.46;91.46
84821;BME280;75463;50.988;11.332;2024-03-23T04:43:52;97705.06;;;7.46;90.29
84821;BME280;75463;50.988;11.332;2024-03-23T04:46:17;97692.13;;;7.40;90.96
84821;BME280;75463;50.988;11.332;2024-03-23T04:48:43;97675.91;;;7.37;91.62
84821;BME280;75463;50.988;11.332;2024-03-23T04:51:10;97666.78;;;7.38;91.86
84821;BME280;75463;50.988;11.332;2024-03-23T04:53:37;97658.56;;;7.26;92.25
84821;BME280;75463;50.988;11.332;2024-03-23T04:56:03;97633.50;;;7.13;93.07
84821;BME280;75463;50.988;11.332;2024-03-23T04:58:29;97643.25;;;7.18;92.65
84821;BME280;75463;50.988;11.332;2024-03-23T05:00:55;97645.06;;;7.31;92.51
84821;BME280;75463;50.988;11.332;2024-03-23T05:03:21;97626.22;;;7.36;92.37
84821;BME280;75463;50.988;11.332;2024-03-23T05:05:48;97617.53;;;7.30;93.00
84821;BME280;75463;50.988;11.332;2024-03-23T05:08:14;97614.22;;;7.25;92.91
84821;BME280;75463;50.988;11.332;2024-03-23T05:10:40;97594.41;;;7.26;92.84
84821;BME280;75463;50.988;11.332;2024-03-23T05:13:06;97588.91;;;7.31;92.85
84821;BME280;75463;50.988;11.332;2024-03-23T05:15:31;97586.13;;;7.36;92.91
84821;BME280;75463;50.988;11.332;2024-03-23T05:17:57;97598.84;;;7.39;92.72
84821;BME280;75463;50.988;11.332;2024-03-23T05:20:22;97590.84;;;7.39;92.61
84821;BME280;75463;50.988;11.332;2024-03-23T05:22:48;97600.56;;;7.35;92.18
84821;BME280;75463;50.988;11.332;2024-03-23T05:25:13;97581.06;;;7.34;93.05
84821;BME280;75463;50.988;11.332;2024-03-23T05:27:38;97572.53;;;7.24;93.10
84821;BME280;75463;50.988;11.332;2024-03-23T05:30:04;97576.03;;;7.33;93.12
84821;BME280;75463;50.988;11.332;2024-03-23T05:32:31;97564.50;;;7.24;93.68
84821;BME280;75463;50.988;11.332;2024-03-23T05:34:56;97571.63;;;7.37;93.84
84821;BME280;75463;50.988;11.332;2024-03-23T05:37:22;97551.16;;;7.32;94.12
84821;BME280;75463;50.988;11.332;2024-03-23T05:39:48;97550.25;;;7.28;94.13
84821;BME280;75463;50.988;11.332;2024-03-23T05:42:16;97542.72;;;7.39;93.61
84821;BME280;75463;50.988;11.332;2024-03-23T05:44:43;97526.97;;;7.37;92.96
84821;BME280;75463;50.988;11.332;2024-03-23T05:47:08;97530.44;;;7.38;93.52
84821;BME280;75463;50.988;11.332;2024-03-23T05:49:34;97528.72;;;7.42;93.65
84821;BME280;75463;50.988;11.332;2024-03-23T05:51:59;97539.84;;;7.35;93.90
84821;BME280;75463;50.988;11.332;2024-03-23T05:54:27;97531.22;;;7.30;93.41
84821;BME280;75463;50.988;11.332;2024-03-23T05:56:54;97537.34;;;7.30;94.37
84821;BME280;75463;50.988;11.332;2024-03-23T05:59:20;97538.00;;;7.36;93.88
84821;BME280;75463;50.988;11.332;2024-03-23T06:01:46;97530.78;;;7.45;94.03
84821;BME280;75463;50.988;11.332;2024-03-23T06:04:12;97521.03;;;7.48;93.52
84821;BME280;75463;50.988;11.332;2024-03-23T06:06:38;97516.44;;;7.41;93.93
84821;BME280;75463;50.988;11.332;2024-03-23T06:09:04;97497.25;;;7.39;93.80
84821;BME280;75463;50.988;11.332;2024-03-23T06:11:29;97500.09;;;7.50;93.44
84821;BME280;75463;50.988;11.332;2024-03-23T06:13:55;97498.06;;;7.47;93.44
84821;BME280;75463;50.988;11.332;2024-03-23T06:16:21;97486.72;;;7.50;93.79
84821;BME280;75463;50.988;11.332;2024-03-23T06:18:49;97487.19;;;7.52;92.72
84821;BME280;75463;50.988;11.332;2024-03-23T06:21:15;97471.47;;;7.51;93.33
84821;BME280;75463;50.988;11.332;2024-03-23T06:23:44;97472.72;;;7.53;93.62
84821;BME280;75463;50.988;11.332;2024-03-23T06:26:19;97478.88;;;7.62;93.01
84821;BME280;75463;50.988;11.332;2024-03-23T06:28:46;97495.41;;;7.56;93.22
84821;BME280;75463;50.988;11.332;2024-03-23T06:31:12;97474.75;;;7.48;94.73
84821;BME280;75463;50.988;11.332;2024-03-23T06:33:37;97482.03;;;7.56;93.87
84821;BME280;75463;50.988;11.332;2024-03-23T06:36:05;97477.78;;;7.63;93.27
84821;BME280;75463;50.988;11.332;2024-03-23T06:38:31;97461.75;;;7.72;93.29
84821;BME280;75463;50.988;11.332;2024-03-23T06:40:57;97442.69;;;7.73;93.08
84821;BME280;75463;50.988;11.332;2024-03-23T06:43:23;97463.63;;;7.63;93.84
84821;BME280;75463;50.988;11.332;2024-03-23T06:45:54;97523.88;;;7.60;94.75
84821;BME280;75463;50.988;11.332;2024-03-23T06:48:20;97541.19;;;7.54;94.75
84821;BME280;75463;50.988;11.332;2024-03-23T06:50:46;97534.13;;;7.58;94.48
84821;BME280;75463;50.988;11.332;2024-03-23T06:53:14;97555.00;;;7.56;93.80
84821;BME280;75463;50.988;11.332;2024-03-23T06:55:40;97574.69;;;7.60;93.80
84821;BME280;75463;50.988;11.332;2024-03-23T06:58:06;97555.75;;;7.32;91.96
84821;BME280;75463;50.988;11.332;2024-03-23T07:00:31;97537.81;;;6.94;92.44
84821;BME280;75463;50.988;11.332;2024-03-23T07:02:57;97541.25;;;6.55;92.96
84821;BME280;75463;50.988;11.332;2024-03-23T07:05:23;97549.22;;;6.47;93.31
84821;BME280;75463;50.988;11.332;2024-03-23T07:07:48;97550.28;;;6.46;93.03
84821;BME280;75463;50.988;11.332;2024-03-23T07:10:13;97557.53;;;6.24;93.85
84821;BME280;75463;50.988;11.332;2024-03-23T07:12:38;97583.09;;;6.03;93.58
84821;BME280;75463;50.988;11.332;2024-03-23T07:15:04;97581.03;;;6.00;93.17
84821;BME280;75463;50.988;11.332;2024-03-23T07:17:30;97570.59;;;5.90;92.90
84821;BME280;75463;50.988;11.332;2024-03-23T07:19:55;97594.72;;;5.85;93.37
84821;BME280;75463;50.988;11.332;2024-03-23T07:22:20;97596.81;;;5.75;93.08
84821;BME280;75463;50.988;11.332;2024-03-23T07:24:46;97604.41;;;5.68;92.76
84821;BME280;75463;50.988;11.332;2024-03-23T07:27:12;97603.22;;;5.60;91.21
84821;BME280;75463;50.988;11.332;2024-03-23T07:29:37;97610.34;;;5.51;91.84
84821;BME280;75463;50.988;11.332;2024-03-23T07:32:02;97614.00;;;5.42;91.28
84821;BME280;75463;50.988;11.332;2024-03-23T07:34:28;97636.59;;;5.45;92.12
84821;BME280;75463;50.988;11.332;2024-03-23T07:36:53;97631.47;;;5.35;93.03
84821;BME280;75463;50.988;11.332;2024-03-23T07:39:18;97648.94;;;5.27;90.74
84821;BME280;75463;50.988;11.332;2024-03-23T07:41:44;97667.78;;;5.17;91.05
84821;BME280;75463;50.988;11.332;2024-03-23T07:44:10;97677.19;;;4.96;91.54
84821;BME280;75463;50.988;11.332;2024-03-23T07:46:36;97696.81;;;5.00;91.92
84821;BME280;75463;50.988;11.332;2024-03-23T07:49:01;97719.00;;;4.96;90.54
84821;BME280;75463;50.988;11.332;2024-03-23T07:51:26;97736.28;;;4.98;90.42
84821;BME280;75463;50.988;11.332;2024-03-23T07:53:52;97748.16;;;5.06;90.73
84821;BME280;75463;50.988;11.332;2024-03-23T07:56:18;97754.47;;;5.10;91.17
84821;BME280;75463;50.988;11.332;2024-03-23T07:58:45;97781.50;;;5.17;91.45
84821;BME280;75463;50.988;11.332;2024-03-23T08:01:15;97784.00;;;5.27;89.87
84821;BME280;75463;50.988;11.332;2024-03-23T08:03:45;97776.13;;;5.22;90.36
84821;BME280;75463;50.988;11.332;2024-03-23T08:08:37;97781.13;;;5.42;89.71
84821;BME280;75463;50.988;11.332;2024-03-23T08:11:03;97793.56;;;5.46;89.47
84821;BME280;75463;50.988;11.332;2024-03-23T08:13:32;97799.69;;;5.46;89.27
84821;BME280;75463;50.988;11.332;2024-03-23T08:16:02;97818.25;;;5.51;89.03
84821;BME280;75463;50.988;11.332;2024-03-23T08:18:28;97810.13;;;5.43;90.09
84821;BME280;75463;50.988;11.332;2024-03-23T08:21:19;97813.19;;;5.50;90.01
84821;BME280;75463;50.988;11.332;2024-03-23T08:23:45;97801.41;;;5.24;88.44
84821;BME280;75463;50.988;11.332;2024-03-23T08:26:11;97812.25;;;5.28;89.68
84821;BME280;75463;50.988;11.332;2024-03-23T08:28:37;97819.31;;;5.19;87.36
84821;BME280;75463;50.988;11.332;2024-03-23T08:31:10;97826.81;;;5.17;88.16
84821;BME280;75463;50.988;11.332;2024-03-23T08:33:36;97840.22;;;5.12;88.69
84821;BME280;75463;50.988;11.332;2024-03-23T08:36:07;97856.06;;;5.03;88.70
84821;BME280;75463;50.988;11.332;2024-03-23T08:38:33;97878.81;;;4.96;89.27
84821;BME280;75463;50.988;11.332;2024-03-23T08:41:02;97885.28;;;4.90;88.88
84821;BME280;75463;50.988;11.332;2024-03-23T08:43:29;97890.94;;;4.84;89.23
84821;BME280;75463;50.988;11.332;2024-03-23T08:46:03;97907.38;;;4.91;88.69
84821;BME280;75463;50.988;11.332;2024-03-23T08:48:28;97905.56;;;4.86;88.67
84821;BME280;75463;50.988;11.332;2024-03-23T08:51:03;97926.41;;;4.79;88.49
84821;BME280;75463;50.988;11.332;2024-03-23T08:53:30;97938.16;;;4.78;89.82
84821;BME280;75463;50.988;11.332;2024-03-23T08:55:56;97932.31;;;4.76;90.00
84821;BME280;75463;50.988;11.332;2024-03-23T08:58:23;97942.63;;;4.59;89.80
84821;BME280;75463;50.988;11.332;2024-03-23T09:00:49;97934.34;;;4.61;89.80
84821;BME280;75463;50.988;11.332;2024-03-23T09:03:15;97939.97;;;4.59;89.18
84821;BME280;75463;50.988;11.332;2024-03-23T09:05:40;97948.19;;;4.40;89.88
84821;BME280;75463;50.988;11.332;2024-03-23T09:08:06;97957.22;;;4.39;90.01
84821;BME280;75463;50.988;11.332;2024-03-23T09:10:31;97965.00;;;4.35;89.78
84821;BME280;75463;50.988;11.332;2024-03-23T09:12:57;97964.81;;;4.27;90.41
84821;BME280;75463;50.988;11.332;2024-03-23T09:15:22;97967.56;;;4.17;90.78
84821;BME280;75463;50.988;11.332;2024-03-23T09:17:47;97966.94;;;4.25;90.64
84821;BME280;75463;50.988;11.332;2024-03-23T09:20:13;97971.94;;;4.31;90.17
84821;BME280;75463;50.988;11.332;2024-03-23T09:22:38;97977.44;;;4.40;90.43
84821;BME280;75463;50.988;11.332;2024-03-23T09:25:04;97976.50;;;4.54;90.84
84821;BME280;75463;50.988;11.332;2024-03-23T09:27:30;97980.59;;;4.70;90.63
84821;BME280;75463;50.988;11.332;2024-03-23T09:29:55;97982.72;;;4.91;90.08
84821;BME280;75463;50.988;11.332;2024-03-23T09:32:20;97984.53;;;4.96;89.72
84821;BME280;75463;50.988;11.332;2024-03-23T09:34:46;97991.41;;;5.20;90.21
84821;BME280;75463;50.988;11.332;2024-03-23T09:37:11;97996.72;;;5.20;90.18
84821;BME280;75463;50.988;11.332;2024-03-23T09:39:36;97994.31;;;5.23;89.24
84821;BME280;75463;50.988;11.332;2024-03-23T09:42:02;97997.34;;;5.35;89.36
84821;BME280;75463;50.988;11.332;2024-03-23T09:44:27;97998.13;;;5.36;89.83
84821;BME280;75463;50.988;11.332;2024-03-23T09:46:54;98008.22;;;5.39;90.32
84821;BME280;75463;50.988;11.332;2024-03-23T09:49:20;98012.38;;;5.26;89.65
84821;BME280;75463;50.988;11.332;2024-03-23T09:51:45;98024.84;;;5.31;89.52
84821;BME280;75463;50.988;11.332;2024-03-23T09:54:11;98028.91;;;5.46;89.96
84821;BME280;75463;50.988;11.332;2024-03-23T09:56:36;98017.44;;;5.64;89.03
84821;BME280;75463;50.988;11.332;2024-03-23T09:59:02;98014.50;;;5.47;88.30
84821;BME280;75463;50.988;11.332;2024-03-23T10:01:30;98034.06;;;5.38;87.85
84821;BME280;75463;50.988;11.332;2024-03-23T10:03:55;98039.34;;;5.43;89.79
84821;BME280;75463;50.988;11.332;2024-03-23T10:06:21;98025.94;;;5.48;88.64
84821;BME280;75463;50.988;11.332;2024-03-23T10:08:47;98050.22;;;5.46;88.26
84821;BME280;75463;50.988;11.332;2024-03-23T10:11:16;98055.44;;;5.56;87.57
84821;BME280;75463;50.988;11.332;2024-03-23T10:13:43;98059.88;;;5.43;87.06
84821;BME280;75463;50.988;11.332;2024-03-23T10:16:09;98059.97;;;5.56;88.05
84821;BME280;75463;50.988;11.332;2024-03-23T10:18:39;98064.88;;;5.67;87.23
84821;BME280;75463;50.988;11.332;2024-03-23T10:21:08;98060.59;;;5.90;86.34
84821;BME280;75463;50.988;11.332;2024-03-23T10:23:35;98066.72;;;6.40;84.91
84821;BME280;75463;50.988;11.332;2024-03-23T10:26:25;98061.53;;;7.20;83.75
84821;BME280;75463;50.988;11.332;2024-03-23T10:31:17;98047.13;;;10.03;76.43
84821;BME280;75463;50.988;11.332;2024-03-23T10:33:48;98047.75;;;10.42;75.26
84821;BME280;75463;50.988;11.332;2024-03-23T10:36:14;98035.53;;;10.70;71.04
84821;BME280;75463;50.988;11.332;2024-03-23T10:38:44;98032.56;;;10.54;75.47
84821;BME280;75463;50.988;11.332;2024-03-23T10:41:10;98028.47;;;10.48;72.45
84821;BME280;75463;50.988;11.332;2024-03-23T10:43:36;98039.13;;;10.82;72.89
84821;BME280;75463;50.988;11.332;2024-03-23T10:46:02;98032.28;;;9.33;73.97
84821;BME280;75463;50.988;11.332;2024-03-23T10:48:28;98023.72;;;8.84;74.44
84821;BME280;75463;50.988;11.332;2024-03-23T10:50:53;98021.75;;;9.37;73.30
84821;BME280;75463;50.988;11.332;2024-03-23T10:53:21;98031.13;;;9.73;72.49
84821;BME280;75463;50.988;11.332;2024-03-23T10:55:49;98030.81;;;9.83;71.36
84821;BME280;75463;50.988;11.332;2024-03-23T10:58:16;98034.50;;;10.29;68.33
84821;BME280;75463;50.988;11.332;2024-03-23T11:00:42;98029.69;;;9.58;70.33
84821;BME280;75463;50.988;11.332;2024-03-23T11:03:30;98029.28;;;11.03;67.28
84821;BME280;75463;50.988;11.332;2024-03-23T11:05:55;98034.13;;;11.47;65.47
84821;BME280;75463;50.988;11.332;2024-03-23T11:11:22;98037.56;;;10.81;63.48
84821;BME280;75463;50.988;11.332;2024-03-23T11:13:51;98027.44;;;10.78;64.36
84821;BME280;75463;50.988;11.332;2024-03-23T11:16:22;98028.94;;;10.34;64.62
84821;BME280;75463;50.988;11.332;2024-03-23T11:18:48;98037.28;;;9.73;64.34
84821;BME280;75463;50.988;11.332;2024-03-23T11:21:52;98032.47;;;9.37;65.08
84821;BME280;75463;50.988;11.332;2024-03-23T11:24:31;98031.91;;;8.79;68.27
84821;BME280;75463;50.988;11.332;2024-03-23T11:26:57;98041.44;;;8.63;68.56
84821;BME280;75463;50.988;11.332;2024-03-23T11:29:25;98045.78;;;8.51;70.28
84821;BME280;75463;50.988;11.332;2024-03-23T11:31:52;98048.13;;;8.52;70.34
84821;BME280;75463;50.988;11.332;2024-03-23T11:34:19;98034.06;;;9.07;67.11
84821;BME280;75463;50.988;11.332;2024-03-23T11:36:45;98036.44;;;9.09;66.57
84821;BME280;75463;50.988;11.332;2024-03-23T11:39:14;98029.38;;;9.13;68.72
84821;BME280;75463;50.988;11.332;2024-03-23T11:41:51;98034.03;;;10.10;64.82
84821;BME280;75463;50.988;11.332;2024-03-23T11:44:18;98018.69;;;10.36;61.26
84821;BME280;75463;50.988;11.332;2024-03-23T11:46:44;98022.19;;;9.94;62.09
84821;BME280;75463;50.988;11.332;2024-03-23T11:49:26;98029.72;;;9.75;62.05
84821;BME280;75463;50.988;11.332;2024-03-23T11:51:52;98027.34;;;9.74;63.00
84821;BME280;75463;50.988;11.332;2024-03-23T11:54:24;98032.75;;;9.27;63.79
84821;BME280;75463;50.988;11.332;2024-03-23T11:56:59;98025.56;;;9.05;64.18
84821;BME280;75463;50.988;11.332;2024-03-23T11:59:36;98039.75;;;9.06;61.94
84821;BME280;75463;50.988;11.332;2024-03-23T12:02:10;98036.34;;;8.84;63.21
84821;BME280;75463;50.988;11.332;2024-03-23T12:04:37;98031.97;;;8.96;64.28
84821;BME280;75463;50.988;11.332;2024-03-23T12:07:29;98044.19;;;8.80;63.48
84821;BME280;75463;50.988;11.332;2024-03-23T12:10:04;98037.63;;;8.56;66.25
84821;BME280;75463;50.988;11.332;2024-03-23T12:12:31;98050.59;;;8.41;67.47
84821;BME280;75463;50.988;11.332;2024-03-23T12:15:05;98053.09;;;8.02;72.31
84821;BME280;75463;50.988;11.332;2024-03-23T12:17:32;98069.66;;;7.15;77.12
84821;BME280;75463;50.988;11.332;2024-03-23T12:19:57;98052.94;;;6.97;78.35
84821;BME280;75463;50.988;11.332;2024-03-23T12:22:24;98043.91;;;7.06;78.71
84821;BME280;75463;50.988;11.332;2024-03-23T12:24:49;98044.69;;;7.46;79.45
84821;BME280;75463;50.988;11.332;2024-03-23T12:27:15;98037.59;;;7.77;79.03
84821;BME280;75463;50.988;11.332;2024-03-23T12:29:41;98040.06;;;7.74;78.79
84821;BME280;75463;50.988;11.332;2024-03-23T12:32:11;98038.22;;;7.61;77.13
84821;BME280;75463;50.988;11.332;2024-03-23T12:34:37;98046.75;;;7.49;79.75
84821;BME280;75463;50.988;11.332;2024-03-23T12:37:02;98037.91;;;7.62;79.14
84821;BME280;75463;50.988;11.332;2024-03-23T12:39:27;98026.47;;;7.48;78.07
84821;BME280;75463;50.988;11.332;2024-03-23T12:41:53;98014.84;;;7.66;76.91
84821;BME280;75463;50.988;11.332;2024-03-23T12:44:18;98023.03;;;7.83;78.23
84821;BME280;75463;50.988;11.332;2024-03-23T12:46:44;98017.06;;;8.08;76.88
84821;BME280;75463;50.988;11.332;2024-03-23T12:49:10;98012.81;;;8.07;75.13
84821;BME280;75463;50.988;11.332;2024-03-23T12:51:36;98003.63;;;8.13;73.93
84821;BME280;75463;50.988;11.332;2024-03-23T12:54:01;98004.47;;;8.22;73.35
84821;BME280;75463;50.988;11.332;2024-03-23T12:56:26;98005.16;;;8.36;72.03
84821;BME280;75463;50.988;11.332;2024-03-23T12:58:55;97998.66;;;8.28;70.91
84821;BME280;75463;50.988;11.332;2024-03-23T13:01:25;98001.88;;;8.17;70.55
84821;BME280;75463;50.988;11.332;2024-03-23T13:03:50;98000.97;;;8.21;70.49
84821;BME280;75463;50.988;11.332;2024-03-23T13:06:19;97984.09;;;8.43;67.02
84821;BME280;75463;50.988;11.332;2024-03-23T13:08:45;97987.34;;;8.31;68.18
84821;BME280;75463;50.988;11.332;2024-03-23T13:11:11;97992.28;;;8.68;66.81
84821;BME280;75463;50.988;11.332;2024-03-23T13:13:37;97979.94;;;8.97;66.08
84821;BME280;75463;50.988;11.332;2024-03-23T13:16:04;97998.63;;;9.19;63.75
84821;BME280;75463;50.988;11.332;2024-03-23T13:18:32;97999.88;;;9.13;59.80
84821;BME280;75463;50.988;11.332;2024-03-23T13:21:00;98001.44;;;9.05;58.54
84821;BME280;75463;50.988;11.332;2024-03-23T13:23:25;97987.56;;;9.12;58.00
84821;BME280;75463;50.988;11.332;2024-03-23T13:25:54;97995.00;;;9.15;58.00
84821;BME280;75463;50.988;11.332;2024-03-23T13:28:21;97997.78;;;9.01;58.72
84821;BME280;75463;50.988;11.332;2024-03-23T13:30:53;98000.03;;;9.08;57.20
84821;BME280;75463;50.988;11.332;2024-03-23T13:33:19;97996.22;;;9.09;55.17
84821;BME280;75463;50.988;11.332;2024-03-23T13:35:54;97993.47;;;9.31;55.86
84821;BME280;75463;50.988;11.332;2024-03-23T13:38:21;97982.91;;;9.34;56.49
84821;BME280;75463;50.988;11.332;2024-03-23T13:40:50;97990.59;;;9.27;54.43
84821;BME280;75463;50.988;11.332;2024-03-23T13:43:16;97990.16;;;9.25;54.49
84821;BME280;75463;50.988;11.332;2024-03-23T13:45:41;97983.38;;;9.28;54.77
84821;BME280;75463;50.988;11.332;2024-03-23T13:48:06;97968.41;;;9.44;54.36
84821;BME280;75463;50.988;11.332;2024-03-23T13:50:32;97981.38;;;9.58;55.65
84821;BME280;75463;50.988;11.332;2024-03-23T13:53:03;97976.94;;;9.54;55.35
84821;BME280;75463;50.988;11.332;2024-03-23T13:55:29;97972.84;;;9.65;55.46
84821;BME280;75463;50.988;11.332;2024-03-23T13:57:57;97984.84;;;9.59;53.96
84821;BME280;75463;50.988;11.332;2024-03-23T14:00:23;97985.63;;;9.76;53.15